Time;durP1;ratioP1;P1;durP2;ratioP2;P2;SDS_P1;SDS_P2;PMS_P1;PMS_P2;Temp;Humidity;BMP_temperature;BMP_pressure;BME280_temperature;BME280_humidity;BME280_pressure;Samples;Min_cycle;Max_cycle;Signal;HPM_P1;HPM_P2
2022/03/11 00:01:03;;;;;;;;;;;;;;;3.65;47.53;100210.91;12213533;19;19913;-78
2022/03/11 00:05:05;;;;;;;;;;;;;;;3.63;48.16;100215.72;12186489;19;20025;-77
2022/03/11 00:09:08;;;;;;;;;;;;;;;3.70;48.37;100212.22;12212403;19;20329;-78
2022/03/11 00:13:09;;;;;;;;;;;;;;;3.94;47.29;100210.97;12200888;19;19903;-78
2022/03/11 00:17:11;;;;;;;;;;;;;;;4.07;48.46;100209.16;12188808;19;20025;-77
2022/03/11 00:21:12;;;;;;;;;;;;;;;4.19;47.21;100214.94;12196712;19;20337;-79
2022/03/11 00:25:14;;;;;;;;;;;;;;;4.32;46.59;100214.19;12212769;19;19921;-79
2022/03/11 00:29:17;;;;;;;;;;;;;;;4.43;47.71;100213.66;12179728;19;20351;-78
2022/03/11 00:33:19;;;;;;;;;;;;;;;4.56;46.71;100219.19;12210643;19;19911;-78
2022/03/11 00:37:21;;;;;;;;;;;;;;;4.55;46.49;100211.19;12184967;19;19990;-78
2022/03/11 00:41:22;;;;;;;;;;;;;;;4.50;47.48;100209.06;12207658;19;19966;-79
2022/03/11 00:45:24;;;;;;;;;;;;;;;4.49;47.18;100218.31;12199053;19;19994;-79
2022/03/11 00:49:26;;;;;;;;;;;;;;;4.41;48.64;100204.81;12186360;19;19931;-79
2022/03/11 00:53:28;;;;;;;;;;;;;;;4.44;49.20;100200.84;12207227;19;19979;-78
2022/03/11 00:57:29;;;;;;;;;;;;;;;4.41;49.62;100193.91;12204121;19;20014;-80
2022/03/11 01:01:31;;;;;;;;;;;;;;;4.41;49.46;100185.72;12184035;19;20009;-81
2022/03/11 01:05:33;;;;;;;;;;;;;;;4.40;48.91;100175.81;12215743;19;19974;-81
2022/03/11 01:09:37;;;;;;;;;;;;;;;4.45;49.25;100173.34;12208919;19;19919;-79
2022/03/11 01:13:39;;;;;;;;;;;;;;;4.45;49.28;100170.63;12181939;19;20376;-79
2022/03/11 01:17:40;;;;;;;;;;;;;;;4.37;49.29;100157.13;12234967;19;19946;-79
2022/03/11 01:21:42;;;;;;;;;;;;;;;4.34;49.18;100165.72;12233671;19;19918;-80
2022/03/11 01:25:44;;;;;;;;;;;;;;;4.30;50.20;100150.81;12185636;19;19979;-79
2022/03/11 01:29:45;;;;;;;;;;;;;;;4.30;50.56;100158.97;12207568;19;19947;-80
2022/03/11 01:33:47;;;;;;;;;;;;;;;4.28;50.52;100141.97;12206671;19;19959;-79
2022/03/11 01:37:48;;;;;;;;;;;;;;;4.28;50.71;100134.66;12188054;19;19911;-79
2022/03/11 01:41:50;;;;;;;;;;;;;;;4.21;51.12;100141.94;12202637;19;19912;-80
2022/03/11 01:45:57;;;;;;;;;;;;;;;4.18;51.72;100139.59;12208453;19;19939;-80
2022/03/11 01:49:58;;;;;;;;;;;;;;;4.16;51.26;100129.94;12182033;19;19919;-81
2022/03/11 01:54:00;;;;;;;;;;;;;;;4.16;51.64;100130.78;12194609;19;19911;-81
2022/03/11 01:58:05;;;;;;;;;;;;;;;4.16;51.50;100125.31;12210225;19;19918;-80
2022/03/11 02:02:07;;;;;;;;;;;;;;;4.10;52.13;100129.72;12184669;19;20353;-80
2022/03/11 02:06:08;;;;;;;;;;;;;;;4.17;51.44;100134.38;12207420;19;19927;-81
2022/03/11 02:10:11;;;;;;;;;;;;;;;4.17;51.80;100129.75;12214105;19;19951;-80
2022/03/11 02:14:14;;;;;;;;;;;;;;;4.14;51.79;100132.88;12173050;19;19906;-80
2022/03/11 02:18:16;;;;;;;;;;;;;;;4.10;51.58;100142.47;12199373;19;19922;-78
2022/03/11 02:22:22;;;;;;;;;;;;;;;3.95;51.99;100131.69;12184666;19;19919;-79
2022/03/11 02:26:25;;;;;;;;;;;;;;;3.91;52.44;100141.31;12206451;19;20645;-78
2022/03/11 02:30:27;;;;;;;;;;;;;;;3.90;51.65;100145.09;12203034;19;19996;-79
2022/03/11 02:34:29;;;;;;;;;;;;;;;3.81;52.64;100149.00;12184523;19;20563;-78
2022/03/11 02:38:30;;;;;;;;;;;;;;;3.72;51.83;100150.16;12210472;19;19989;-78
2022/03/11 02:42:32;;;;;;;;;;;;;;;3.61;51.96;100148.81;12209195;19;19982;-78
2022/03/11 02:46:34;;;;;;;;;;;;;;;3.53;53.14;100141.63;12200997;19;19922;-79
2022/03/11 02:50:35;;;;;;;;;;;;;;;3.57;52.06;100142.94;12227741;19;19939;-79
2022/03/11 02:54:37;;;;;;;;;;;;;;;3.48;53.79;100125.03;12235537;19;19915;-79
2022/03/11 02:58:39;;;;;;;;;;;;;;;3.44;52.75;100134.63;12202236;19;19921;-78
2022/03/11 03:02:41;;;;;;;;;;;;;;;3.40;54.87;100131.47;12229757;19;19914;-80
2022/03/11 03:06:42;;;;;;;;;;;;;;;3.49;53.22;100126.72;12231852;19;20325;-81
2022/03/11 03:10:44;;;;;;;;;;;;;;;3.46;54.45;100123.53;12209400;19;19928;-79
2022/03/11 03:14:45;;;;;;;;;;;;;;;3.47;54.34;100136.97;12229191;19;19914;-78
2022/03/11 03:18:47;;;;;;;;;;;;;;;3.43;54.91;100141.13;12231351;19;19973;-78
2022/03/11 03:22:51;;;;;;;;;;;;;;;3.41;54.77;100127.69;12207067;19;20265;-79
2022/03/11 03:26:52;;;;;;;;;;;;;;;3.38;54.72;100140.84;12225214;19;19964;-78
2022/03/11 03:30:54;;;;;;;;;;;;;;;3.30;55.34;100124.63;12227080;19;19918;-79
2022/03/11 03:34:55;;;;;;;;;;;;;;;3.31;54.60;100124.47;12209712;19;19918;-80
2022/03/11 03:38:57;;;;;;;;;;;;;;;3.20;54.84;100120.38;12222411;19;20326;-78
2022/03/11 03:42:58;;;;;;;;;;;;;;;3.11;55.79;100105.19;12235046;19;19927;-79
2022/03/11 03:47:00;;;;;;;;;;;;;;;3.03;56.46;100112.63;12197151;19;19911;-78
2022/03/11 03:51:03;;;;;;;;;;;;;;;3.00;56.11;100104.84;12228137;19;19910;-78
2022/03/11 03:55:05;;;;;;;;;;;;;;;3.02;55.92;100098.19;12210868;19;19926;-79
2022/03/11 03:59:07;;;;;;;;;;;;;;;2.94;56.57;100101.91;12204918;19;19952;-80
2022/03/11 04:03:09;;;;;;;;;;;;;;;2.90;56.12;100102.47;12213645;19;19915;-78
2022/03/11 04:07:11;;;;;;;;;;;;;;;2.85;56.12;100092.13;12213761;19;19966;-79
2022/03/11 04:11:12;;;;;;;;;;;;;;;2.80;55.83;100089.16;12191701;19;19918;-80
2022/03/11 04:15:14;;;;;;;;;;;;;;;2.82;55.98;100078.06;12208909;19;20333;-79
2022/03/11 04:19:16;;;;;;;;;;;;;;;2.82;55.37;100083.53;12208813;19;19915;-81
2022/03/11 04:23:17;;;;;;;;;;;;;;;2.80;55.31;100096.50;12192149;19;19999;-80
2022/03/11 04:27:19;;;;;;;;;;;;;;;2.77;54.98;100097.72;12212313;19;19915;-82
2022/03/11 04:31:20;;;;;;;;;;;;;;;2.77;54.71;100102.28;12196316;19;20344;-80
2022/03/11 04:35:22;;;;;;;;;;;;;;;2.73;54.65;100116.28;12203687;19;19922;-79
2022/03/11 04:39:26;;;;;;;;;;;;;;;2.70;54.28;100113.13;12217313;19;20002;-79
2022/03/11 04:43:31;;;;;;;;;;;;;;;2.65;54.26;100119.16;12181923;19;19919;-79
2022/03/11 04:47:32;;;;;;;;;;;;;;;2.62;53.86;100110.53;12206837;19;20054;-79
2022/03/11 04:51:34;;;;;;;;;;;;;;;2.60;53.63;100107.97;12202611;19;19927;-78
2022/03/11 04:55:36;;;;;;;;;;;;;;;2.57;53.28;100121.97;12180233;19;19974;-79
2022/03/11 04:59:37;;;;;;;;;;;;;;;2.46;53.49;100128.72;12215374;19;19922;-80
2022/03/11 05:03:39;;;;;;;;;;;;;;;2.39;53.33;100135.13;12210532;19;19922;-79
2022/03/11 05:07:44;;;;;;;;;;;;;;;2.33;53.39;100127.72;12182496;19;19926;-80
2022/03/11 05:11:45;;;;;;;;;;;;;;;2.31;53.32;100135.22;12205669;19;19986;-82
2022/03/11 05:15:47;;;;;;;;;;;;;;;2.24;53.10;100129.69;12204552;19;19915;-80
2022/03/11 05:19:49;;;;;;;;;;;;;;;2.16;53.23;100132.50;12185212;19;19911;-80
2022/03/11 05:23:50;;;;;;;;;;;;;;;2.09;53.48;100137.84;12207277;19;19917;-80
2022/03/11 05:27:52;;;;;;;;;;;;;;;2.05;53.34;100140.09;12201319;19;19915;-79
2022/03/11 05:31:53;;;;;;;;;;;;;;;1.98;53.50;100146.47;12193813;19;19927;-79
2022/03/11 05:35:55;;;;;;;;;;;;;;;1.96;53.29;100143.06;12206445;19;19991;-79
2022/03/11 05:39:57;;;;;;;;;;;;;;;1.91;53.01;100142.81;12200145;19;19915;-80
2022/03/11 05:43:58;;;;;;;;;;;;;;;1.85;53.52;100141.66;12179465;19;19975;-79
2022/03/11 05:48:00;;;;;;;;;;;;;;;1.82;53.58;100140.16;12209094;19;19948;-80
2022/03/11 05:52:01;;;;;;;;;;;;;;;1.86;53.27;100150.66;12205846;19;19978;-79
2022/03/11 05:56:03;;;;;;;;;;;;;;;1.91;53.09;100140.09;12186143;19;19947;-78
2022/03/11 06:00:06;;;;;;;;;;;;;;;1.89;52.79;100142.13;12206309;19;19974;-81
2022/03/11 06:04:14;;;;;;;;;;;;;;;1.89;52.73;100147.56;12210453;19;20066;-79
2022/03/11 06:08:16;;;;;;;;;;;;;;;1.86;52.97;100129.75;12190538;19;19906;-79
2022/03/11 06:12:19;;;;;;;;;;;;;;;1.80;53.20;100144.09;12209975;19;19942;-80
2022/03/11 06:16:20;;;;;;;;;;;;;;;1.82;53.36;100137.44;12168256;19;20341;-79
2022/03/11 06:20:22;;;;;;;;;;;;;;;1.86;52.92;100137.91;12177267;19;19994;-78
2022/03/11 06:24:24;;;;;;;;;;;;;;;1.85;52.71;100129.97;12209421;19;19966;-79
2022/03/11 06:28:26;;;;;;;;;;;;;;;1.84;52.83;100134.53;12175762;19;19936;-79
2022/03/11 06:32:27;;;;;;;;;;;;;;;1.84;52.66;100134.53;12206428;19;19910;-80
2022/03/11 06:39:47;;;;;;;;;;;;;;;1.93;52.47;100135.28;12270244;19;19935;-80
2022/03/11 06:47:30;;;;;;;;;;;;;;;2.00;51.86;100136.25;12258619;19;20467;-80
2022/03/11 06:51:41;;;;;;;;;;;;;;;2.07;51.83;100129.03;12168766;19;20027;-80
2022/03/11 06:55:43;;;;;;;;;;;;;;;2.12;51.78;100140.19;12123866;19;19975;-80
2022/03/11 06:59:45;;;;;;;;;;;;;;;2.16;51.48;100132.50;12263485;19;19915;-79
2022/03/11 07:03:46;;;;;;;;;;;;;;;2.25;51.09;100143.09;12262777;19;19923;-80
2022/03/11 07:07:48;;;;;;;;;;;;;;;2.31;50.93;100151.53;12231164;19;19921;-80
2022/03/11 07:11:51;;;;;;;;;;;;;;;2.34;50.76;100143.84;12192515;19;1006484;-79
2022/03/11 07:15:52;;;;;;;;;;;;;;;2.44;50.02;100151.69;12244301;19;19978;-79
2022/03/11 07:19:54;;;;;;;;;;;;;;;2.61;49.91;100147.75;12236540;19;19915;-79
2022/03/11 07:23:56;;;;;;;;;;;;;;;2.68;48.99;100142.41;12258956;19;19970;-79
2022/03/11 07:27:58;;;;;;;;;;;;;;;2.85;49.00;100149.28;12256977;19;20350;-79
2022/03/11 07:31:59;;;;;;;;;;;;;;;2.97;48.63;100149.63;12242666;19;19926;-79
2022/03/11 07:36:01;;;;;;;;;;;;;;;3.07;48.25;100152.91;12260892;19;19931;-80
2022/03/11 07:40:03;;;;;;;;;;;;;;;3.23;47.72;100154.53;12261351;19;19924;-80
2022/03/11 07:44:05;;;;;;;;;;;;;;;3.40;47.65;100149.69;12244917;19;20515;-80
2022/03/11 07:48:18;;;;;;;;;;;;;;;3.52;47.07;100147.28;12265069;19;19918;-81
2022/03/11 07:52:22;;;;;;;;;;;;;;;3.69;46.97;100153.28;12240036;19;19910;-79
2022/03/11 07:56:27;;;;;;;;;;;;;;;3.87;46.46;100153.66;12257484;19;19926;-81
2022/03/11 08:00:28;;;;;;;;;;;;;;;4.03;46.09;100153.34;12250892;19;19915;-80
2022/03/11 08:04:30;;;;;;;;;;;;;;;4.18;45.44;100144.22;12197132;19;19922;-80
2022/03/11 08:08:33;;;;;;;;;;;;;;;4.29;45.67;100140.94;12229471;19;19922;-81
2022/03/11 08:12:36;;;;;;;;;;;;;;;4.35;44.84;100145.59;12214562;19;20358;-80
2022/03/11 08:16:38;;;;;;;;;;;;;;;4.55;44.66;100152.00;12183341;19;19988;-79
2022/03/11 08:20:43;;;;;;;;;;;;;;;4.79;44.36;100147.91;12207737;19;19919;-79
2022/03/11 08:24:44;;;;;;;;;;;;;;;5.00;44.29;100148.81;12212383;19;19907;-78
2022/03/11 08:28:46;;;;;;;;;;;;;;;5.16;43.15;100156.63;12183108;19;19911;-80
2022/03/11 08:33:08;;;;;;;;;;;;;;;5.20;42.55;100159.78;12203998;19;19947;-80
2022/03/11 08:37:30;;;;;;;;;;;;;;;5.47;42.36;100150.63;12188646;19;19919;-80
2022/03/11 08:41:37;;;;;;;;;;;;;;;5.73;42.35;100154.41;12202064;19;19910;-79
2022/03/11 08:45:42;;;;;;;;;;;;;;;5.74;41.91;100138.81;12201177;19;19921;-80
2022/03/11 08:49:45;;;;;;;;;;;;;;;6.04;41.98;100158.41;12182691;19;19928;-79
2022/03/11 08:53:48;;;;;;;;;;;;;;;6.38;42.04;100149.94;12206855;19;19923;-79
2022/03/11 08:57:51;;;;;;;;;;;;;;;6.47;40.95;100144.25;12198457;19;19922;-80
2022/03/11 09:01:53;;;;;;;;;;;;;;;6.70;40.97;100143.75;12179875;19;19911;-79
2022/03/11 09:05:55;;;;;;;;;;;;;;;6.89;40.43;100144.72;12210527;19;19907;-80
2022/03/11 09:09:57;;;;;;;;;;;;;;;7.08;40.58;100135.59;12200972;19;19974;-80
2022/03/11 09:13:59;;;;;;;;;;;;;;;7.04;39.37;100134.31;12182890;19;20265;-80
2022/03/11 09:18:00;;;;;;;;;;;;;;;7.13;39.37;100135.75;12199968;19;19923;-80
2022/03/11 09:22:03;;;;;;;;;;;;;;;7.11;39.01;100126.94;12201918;19;20349;-80
2022/03/11 09:26:05;;;;;;;;;;;;;;;7.21;39.05;100121.78;12179097;19;19920;-80
2022/03/11 09:30:08;;;;;;;;;;;;;;;7.44;39.23;100113.00;12205871;19;19974;-80
2022/03/11 09:34:12;;;;;;;;;;;;;;;7.66;39.00;100107.13;12194973;19;19944;-80
2022/03/11 09:38:25;;;;;;;;;;;;;;;7.68;38.23;100116.81;12187973;19;19919;-80
2022/03/11 09:42:28;;;;;;;;;;;;;;;7.78;37.59;100115.47;12208620;19;19935;-80
2022/03/11 09:46:32;;;;;;;;;;;;;;;7.85;37.70;100106.13;12182219;19;19932;-80
2022/03/11 09:50:38;;;;;;;;;;;;;;;8.09;37.84;100095.31;12210621;19;19926;-80
2022/03/11 09:54:40;;;;;;;;;;;;;;;8.20;37.92;100084.44;12196392;19;20283;-79
2022/03/11 09:58:44;;;;;;;;;;;;;;;8.39;37.05;100090.00;12187107;19;19918;-80
2022/03/11 10:02:46;;;;;;;;;;;;;;;8.63;36.83;100082.72;12195017;19;19915;-80
2022/03/11 10:06:52;;;;;;;;;;;;;;;8.61;36.59;100084.88;12207462;19;19915;-81
2022/03/11 10:11:08;;;;;;;;;;;;;;;8.74;36.50;100089.34;12181113;19;19919;-80
2022/03/11 10:15:10;;;;;;;;;;;;;;;8.81;35.96;100090.13;12205334;19;19951;-81
2022/03/11 10:19:20;;;;;;;;;;;;;;;9.05;36.46;100091.06;12208324;19;20362;-81
2022/03/11 10:23:27;;;;;;;;;;;;;;;9.06;35.99;100084.47;12198635;19;19915;-81
2022/03/11 10:27:53;;;;;;;;;;;;;;;9.20;36.10;100087.88;12209666;19;20386;-81
2022/03/11 10:31:56;;;;;;;;;;;;;;;9.19;35.78;100080.69;12181666;19;20352;-81
2022/03/11 10:36:10;;;;;;;;;;;;;;;9.36;35.95;100090.78;12206219;19;19911;-80
2022/03/11 10:40:15;;;;;;;;;;;;;;;9.42;35.73;100089.00;12204034;19;20319;-78
2022/03/11 10:44:22;;;;;;;;;;;;;;;9.53;35.41;100087.38;12179337;19;19911;-81
2022/03/11 10:48:43;;;;;;;;;;;;;;;9.54;35.16;100095.38;12199385;19;20330;-80
2022/03/11 10:52:47;;;;;;;;;;;;;;;9.53;34.92;100093.69;12180293;19;19979;-80
2022/03/11 10:56:49;;;;;;;;;;;;;;;9.75;34.52;100088.47;12203419;19;19914;-80
2022/03/11 11:00:51;;;;;;;;;;;;;;;9.90;34.84;100090.75;12198209;19;19911;-80
2022/03/11 11:04:55;;;;;;;;;;;;;;;9.98;34.83;100084.88;12180071;19;19919;-83
2022/03/11 11:08:57;;;;;;;;;;;;;;;10.09;34.84;100079.63;12196609;19;19939;-80
2022/03/11 11:12:59;;;;;;;;;;;;;;;10.43;34.79;100078.78;12198471;19;19936;-80
2022/03/11 11:17:02;;;;;;;;;;;;;;;10.63;34.52;100074.78;12172882;19;19917;-80
2022/03/11 11:21:07;;;;;;;;;;;;;;;10.78;33.95;100052.22;12213040;19;21669;-82
2022/03/11 11:25:15;;;;;;;;;;;;;;;10.94;34.46;100048.66;12215348;19;20362;-80
2022/03/11 11:29:22;;;;;;;;;;;;;;;10.85;33.88;100045.44;12170288;19;19914;-81
2022/03/11 11:33:25;;;;;;;;;;;;;;;11.03;33.71;100046.34;12196335;19;19918;-79
2022/03/11 11:37:35;;;;;;;;;;;;;;;11.02;33.36;100048.25;12187658;19;19921;-80
2022/03/11 11:41:57;;;;;;;;;;;;;;;11.30;33.42;100035.50;12200697;19;19970;-81
2022/03/11 11:46:02;;;;;;;;;;;;;;;11.36;33.76;100029.88;12213848;19;19944;-81
2022/03/11 11:50:13;;;;;;;;;;;;;;;11.71;33.38;100026.00;12188408;19;20361;-81
2022/03/11 11:54:31;;;;;;;;;;;;;;;12.05;33.17;100021.31;12209084;19;19927;-81
2022/03/11 11:58:33;;;;;;;;;;;;;;;12.50;32.84;100003.66;12195753;19;20329;-81
2022/03/11 12:02:35;;;;;;;;;;;;;;;13.05;32.72;100001.75;12206315;19;19978;-81
2022/03/11 12:06:56;;;;;;;;;;;;;;;13.83;32.43;100002.19;12208563;19;19918;-81
2022/03/11 12:10:58;;;;;;;;;;;;;;;14.28;30.29;99986.09;12183777;19;19991;-82
2022/03/11 12:15:05;;;;;;;;;;;;;;;14.61;30.03;99962.66;12203948;19;19910;-80
2022/03/11 12:19:31;;;;;;;;;;;;;;;14.94;29.80;99958.56;12213150;19;19926;-84
2022/03/11 12:23:38;;;;;;;;;;;;;;;15.58;30.33;99964.69;12190592;19;19915;-85
2022/03/11 12:27:59;;;;;;;;;;;;;;;15.81;28.36;99946.63;12209348;19;19914;-83
2022/03/11 12:32:05;;;;;;;;;;;;;;;16.46;29.02;99935.56;12192351;19;20275;-84
2022/03/11 12:36:07;;;;;;;;;;;;;;;16.68;26.93;99929.59;12217377;19;19926;-83
2022/03/11 12:40:09;;;;;;;;;;;;;;;16.96;26.47;99930.84;12207321;19;20314;-84
2022/03/11 12:44:13;;;;;;;;;;;;;;;16.98;26.54;99925.81;12190988;19;19915;-84
2022/03/11 12:48:17;;;;;;;;;;;;;;;17.63;26.91;99920.78;12220989;19;19918;-85
2022/03/11 12:52:19;;;;;;;;;;;;;;;18.09;26.33;99916.72;12209400;19;19928;-84
2022/03/11 12:56:23;;;;;;;;;;;;;;;18.44;25.70;99913.47;12186640;19;19930;-83
2022/03/11 13:00:29;;;;;;;;;;;;;;;18.76;26.01;99911.09;12215166;19;19903;-81
2022/03/11 13:04:39;;;;;;;;;;;;;;;19.13;25.36;99902.69;12192815;19;19915;-82
2022/03/11 13:09:02;;;;;;;;;;;;;;;19.29;24.77;99885.66;12211237;19;19919;-78
2022/03/11 13:13:04;;;;;;;;;;;;;;;19.19;23.70;99888.63;12215377;19;19932;-84
2022/03/11 13:17:10;;;;;;;;;;;;;;;19.22;24.29;99883.25;12175122;19;19923;-84
2022/03/11 13:21:15;;;;;;;;;;;;;;;18.39;24.95;99868.06;12208277;19;19918;-83
2022/03/11 13:25:26;;;;;;;;;;;;;;;17.14;25.36;99866.13;12184090;19;19919;-82
2022/03/11 13:29:29;;;;;;;;;;;;;;;16.43;26.40;99858.28;12210339;19;19919;-82
2022/03/11 13:33:34;;;;;;;;;;;;;;;16.02;26.85;99847.34;12202873;19;19938;-84
2022/03/11 13:37:43;;;;;;;;;;;;;;;15.56;27.20;99836.41;12185329;19;19936;-82
2022/03/11 13:42:04;;;;;;;;;;;;;;;15.97;27.05;99841.81;12215488;19;19915;-82
2022/03/11 13:46:07;;;;;;;;;;;;;;;16.59;26.37;99843.94;12202875;19;19924;-83
2022/03/11 13:50:09;;;;;;;;;;;;;;;16.80;26.52;99836.31;12192404;19;19915;-83
2022/03/11 13:54:24;;;;;;;;;;;;;;;16.54;25.61;99818.16;12209141;19;19915;-83
2022/03/11 13:58:28;;;;;;;;;;;;;;;16.27;26.06;99818.56;12175657;19;19911;-81
2022/03/11 14:02:31;;;;;;;;;;;;;;;15.32;27.13;99814.81;12207736;19;20637;-83
2022/03/11 14:06:32;;;;;;;;;;;;;;;14.80;27.28;99813.19;12209285;19;19936;-83
2022/03/11 14:10:36;;;;;;;;;;;;;;;14.41;27.69;99799.81;12180872;19;19911;-84
2022/03/11 14:14:41;;;;;;;;;;;;;;;14.31;28.27;99803.44;12206976;19;19932;-84
2022/03/11 14:18:45;;;;;;;;;;;;;;;14.16;28.68;99788.69;12209005;19;19955;-86
2022/03/11 14:22:47;;;;;;;;;;;;;;;14.17;28.78;99795.91;12186427;19;19915;-82
2022/03/11 14:26:48;;;;;;;;;;;;;;;14.17;28.85;99784.84;12199966;19;19932;-83
2022/03/11 14:30:51;;;;;;;;;;;;;;;14.09;29.01;99775.94;12209973;19;19911;-83
2022/03/11 14:34:55;;;;;;;;;;;;;;;14.00;29.06;99771.22;12187531;19;20354;-83
2022/03/11 14:38:57;;;;;;;;;;;;;;;14.10;29.08;99774.03;12207449;19;19915;-83
2022/03/11 14:42:59;;;;;;;;;;;;;;;14.07;29.23;99775.41;12200375;19;19915;-83
2022/03/11 14:47:01;;;;;;;;;;;;;;;14.16;29.17;99772.06;12187870;19;19910;-84
2022/03/11 14:51:07;;;;;;;;;;;;;;;14.33;28.77;99767.09;12204375;19;19924;-83
2022/03/11 14:55:09;;;;;;;;;;;;;;;14.67;28.32;99758.28;12209820;19;19914;-84
2022/03/11 14:59:11;;;;;;;;;;;;;;;14.68;28.44;99760.78;12181367;19;19911;-83
2022/03/11 15:03:13;;;;;;;;;;;;;;;14.81;28.63;99745.50;12207591;19;19990;-83
2022/03/11 15:07:19;;;;;;;;;;;;;;;15.18;28.07;99736.81;12191938;19;20382;-82
2022/03/11 15:11:21;;;;;;;;;;;;;;;15.25;27.77;99733.75;12211737;19;19993;-83
2022/03/11 15:15:23;;;;;;;;;;;;;;;16.06;27.63;99731.69;12219010;19;19923;-81
2022/03/11 15:19:25;;;;;;;;;;;;;;;16.54;26.85;99731.91;12195506;19;20326;-83
2022/03/11 15:23:27;;;;;;;;;;;;;;;16.73;26.00;99735.63;12223050;19;19911;-80
2022/03/11 15:27:29;;;;;;;;;;;;;;;17.08;25.98;99728.91;12218279;19;19911;-82
2022/03/11 15:31:31;;;;;;;;;;;;;;;16.77;25.41;99728.38;12191823;19;19925;-82
2022/03/11 15:35:33;;;;;;;;;;;;;;;16.11;26.06;99731.69;12223134;19;19927;-82
2022/03/11 15:39:35;;;;;;;;;;;;;;;15.52;26.51;99729.75;12223362;19;19919;-79
2022/03/11 15:43:40;;;;;;;;;;;;;;;15.38;26.83;99733.16;12194165;19;19919;-83
2022/03/11 15:47:44;;;;;;;;;;;;;;;15.23;27.32;99727.66;12215062;19;20325;-81
2022/03/11 15:51:46;;;;;;;;;;;;;;;14.86;27.96;99731.63;12220072;19;19922;-83
2022/03/11 15:55:47;;;;;;;;;;;;;;;14.68;27.84;99734.97;12182680;19;19943;-82
2022/03/11 15:59:50;;;;;;;;;;;;;;;14.43;27.94;99727.50;12216169;19;19981;-82
2022/03/11 16:04:15;;;;;;;;;;;;;;;14.24;28.19;99730.78;12211073;19;19918;-81
2022/03/11 16:08:19;;;;;;;;;;;;;;;14.00;28.45;99724.94;12192511;19;20262;-82
2022/03/11 16:12:21;;;;;;;;;;;;;;;13.71;28.73;99732.06;12213371;19;19955;-81
2022/03/11 16:16:24;;;;;;;;;;;;;;;13.39;28.89;99735.84;12190040;19;20267;-82
2022/03/11 16:20:26;;;;;;;;;;;;;;;13.17;29.28;99738.75;12214874;19;19922;-84
2022/03/11 16:24:28;;;;;;;;;;;;;;;12.83;29.73;99743.81;12221677;19;19926;-83
2022/03/11 16:28:39;;;;;;;;;;;;;;;12.53;29.90;99748.03;12196853;19;19915;-82
2022/03/11 16:32:52;;;;;;;;;;;;;;;12.22;30.15;99753.25;12222869;19;19919;-82
2022/03/11 16:36:54;;;;;;;;;;;;;;;12.00;30.51;99749.75;12212877;19;19915;-83
2022/03/11 16:40:56;;;;;;;;;;;;;;;11.76;30.64;99744.50;12196104;19;19907;-83
2022/03/11 16:44:57;;;;;;;;;;;;;;;11.53;31.06;99750.28;12217049;19;19993;-82
2022/03/11 16:49:00;;;;;;;;;;;;;;;11.34;31.01;99756.16;12214807;19;19911;-83
2022/03/11 16:53:02;;;;;;;;;;;;;;;11.14;31.94;99761.38;12190059;19;19914;-82
2022/03/11 16:57:04;;;;;;;;;;;;;;;10.94;32.54;99750.91;12211408;19;20321;-82
2022/03/11 17:01:08;;;;;;;;;;;;;;;10.71;32.07;99757.47;12219542;19;19954;-83
2022/03/11 17:05:10;;;;;;;;;;;;;;;10.54;32.34;99762.97;12191273;19;19918;-82
2022/03/11 17:09:13;;;;;;;;;;;;;;;10.38;32.25;99764.66;12213645;19;20334;-81
2022/03/11 17:13:19;;;;;;;;;;;;;;;10.20;32.65;99765.69;12210230;19;20329;-81
2022/03/11 17:17:20;;;;;;;;;;;;;;;10.03;32.49;99773.09;12205919;19;20012;-81
2022/03/11 17:21:23;;;;;;;;;;;;;;;9.87;32.94;99773.88;12209091;19;19946;-80
2022/03/11 17:25:25;;;;;;;;;;;;;;;9.75;33.12;99773.91;12193702;19;19922;-80
2022/03/11 17:29:29;;;;;;;;;;;;;;;9.64;33.10;99781.16;12207105;19;19914;-81
2022/03/11 17:33:31;;;;;;;;;;;;;;;9.45;34.25;99787.88;12203328;19;19998;-82
2022/03/11 17:37:33;;;;;;;;;;;;;;;9.28;33.94;99772.16;12182915;19;19919;-81
2022/03/11 17:41:35;;;;;;;;;;;;;;;9.10;34.17;99780.53;12213379;19;19932;-80
2022/03/11 17:45:37;;;;;;;;;;;;;;;8.98;33.98;99777.78;12196391;19;20399;-80
2022/03/11 17:49:38;;;;;;;;;;;;;;;8.94;34.00;99782.09;12190208;19;19973;-80
2022/03/11 17:53:40;;;;;;;;;;;;;;;8.89;34.17;99776.50;12212806;19;20330;-80
2022/03/11 17:57:42;;;;;;;;;;;;;;;8.81;33.97;99783.19;12210657;19;20362;-80
2022/03/11 18:01:46;;;;;;;;;;;;;;;8.79;33.65;99790.00;12177858;19;20000;-80
2022/03/11 18:05:48;;;;;;;;;;;;;;;8.76;33.46;99793.22;12191319;19;19938;-81
2022/03/11 18:09:50;;;;;;;;;;;;;;;8.75;33.31;99781.41;12205518;19;19931;-82
2022/03/11 18:13:53;;;;;;;;;;;;;;;8.73;33.16;99782.72;12200534;19;19915;-82
2022/03/11 18:17:55;;;;;;;;;;;;;;;8.70;33.10;99781.28;12201957;19;19959;-81
2022/03/11 18:21:56;;;;;;;;;;;;;;;8.66;33.19;99780.09;12217103;19;19919;-81
2022/03/11 18:25:59;;;;;;;;;;;;;;;8.67;32.82;99774.34;12189098;19;19918;-81
2022/03/11 18:30:01;;;;;;;;;;;;;;;8.69;32.82;99768.63;12209260;19;20293;-83
2022/03/11 18:34:03;;;;;;;;;;;;;;;8.69;32.24;99760.38;12204336;19;20207;-81
2022/03/11 18:38:08;;;;;;;;;;;;;;;8.74;32.30;99759.66;12188306;19;19923;-82
2022/03/11 18:42:10;;;;;;;;;;;;;;;8.80;32.05;99755.94;12195853;19;19939;-80
2022/03/11 18:46:11;;;;;;;;;;;;;;;8.80;31.78;99753.19;12202227;19;19911;-81
2022/03/11 18:50:14;;;;;;;;;;;;;;;8.84;31.38;99757.16;12188430;19;19935;-82
2022/03/11 18:54:19;;;;;;;;;;;;;;;8.94;31.37;99771.13;12202739;19;19921;-80
2022/03/11 18:58:25;;;;;;;;;;;;;;;8.98;30.83;99771.47;12182597;19;19914;-80
2022/03/11 19:02:27;;;;;;;;;;;;;;;9.00;30.68;99786.66;12202864;19;19915;-80
2022/03/11 19:06:32;;;;;;;;;;;;;;;9.02;30.84;99786.41;12208252;19;19911;-80
2022/03/11 19:10:34;;;;;;;;;;;;;;;8.96;30.89;99796.47;12177785;19;19915;-80
2022/03/11 19:14:35;;;;;;;;;;;;;;;8.87;31.10;99782.25;12205860;19;19918;-81
2022/03/11 19:18:39;;;;;;;;;;;;;;;8.75;31.33;99775.91;12200549;19;19918;-80
2022/03/11 19:22:41;;;;;;;;;;;;;;;8.57;31.44;99776.88;12180273;19;19926;-81
2022/03/11 19:26:43;;;;;;;;;;;;;;;8.48;31.74;99775.53;12201797;19;19974;-81
2022/03/11 19:30:46;;;;;;;;;;;;;;;8.48;31.24;99781.03;12207051;19;20347;-80
2022/03/11 19:34:47;;;;;;;;;;;;;;;8.44;31.20;99780.66;12185821;19;19903;-80
2022/03/11 19:38:51;;;;;;;;;;;;;;;8.46;30.25;99779.59;12205836;19;19915;-81
2022/03/11 19:42:54;;;;;;;;;;;;;;;8.49;30.71;99785.44;12208309;19;19922;-79
2022/03/11 19:46:56;;;;;;;;;;;;;;;8.46;30.49;99780.44;12178974;19;19919;-80
2022/03/11 19:51:00;;;;;;;;;;;;;;;8.41;30.86;99796.75;12203958;19;19911;-80
2022/03/11 19:55:03;;;;;;;;;;;;;;;8.32;30.66;99788.00;12194583;19;19915;-80
2022/03/11 19:59:06;;;;;;;;;;;;;;;8.26;30.77;99788.94;12191851;19;19914;-81
2022/03/11 20:03:08;;;;;;;;;;;;;;;8.17;31.01;99793.94;12217239;19;19935;-82
2022/03/11 20:07:11;;;;;;;;;;;;;;;8.09;31.31;99799.78;12221455;19;19926;-81
2022/03/11 20:11:13;;;;;;;;;;;;;;;7.96;31.42;99806.28;12198917;19;19923;-80
2022/03/11 20:15:17;;;;;;;;;;;;;;;7.90;31.39;99798.16;12218963;19;19922;-81
2022/03/11 20:19:18;;;;;;;;;;;;;;;7.86;31.36;99795.03;12226354;19;20582;-82
2022/03/11 20:23:21;;;;;;;;;;;;;;;7.80;31.72;99803.38;12200000;19;20329;-81
2022/03/11 20:27:28;;;;;;;;;;;;;;;7.70;31.21;99804.75;12221411;19;20269;-82
2022/03/11 20:31:31;;;;;;;;;;;;;;;7.71;31.40;99800.09;12213575;19;19936;-79
2022/03/11 20:35:34;;;;;;;;;;;;;;;7.65;31.51;99810.09;12215869;19;19919;-81
2022/03/11 20:39:35;;;;;;;;;;;;;;;7.60;31.50;99825.56;12219342;19;19918;-80
2022/03/11 20:43:37;;;;;;;;;;;;;;;7.50;31.69;99823.38;12194311;19;19914;-81
2022/03/11 20:47:40;;;;;;;;;;;;;;;7.43;31.91;99825.31;12211510;19;20579;-80
2022/03/11 20:51:43;;;;;;;;;;;;;;;7.43;31.67;99828.91;12214155;19;19918;-81
2022/03/11 20:55:45;;;;;;;;;;;;;;;7.39;32.01;99818.63;12188086;19;19924;-81
2022/03/11 20:59:46;;;;;;;;;;;;;;;7.39;31.84;99824.94;12211929;19;19911;-81